sensor_id;sensor_type;location;lat;lon;timestamp;P1;durP1;ratioP1;P2;durP2;ratioP2
62419;SDS011;48460;51.616;5.426;2022-08-21T00:02:25;9.63;;;4.65;;
62419;SDS011;48460;51.616;5.426;2022-08-21T00:04:52;8.98;;;4.60;;
62419;SDS011;48460;51.616;5.426;2022-08-21T00:07:20;7.93;;;4.93;;
62419;SDS011;48460;51.616;5.426;2022-08-21T00:09:46;7.72;;;4.63;;
62419;SDS011;48460;51.616;5.426;2022-08-21T00:12:12;8.10;;;4.70;;
62419;SDS011;48460;51.616;5.426;2022-08-21T00:14:38;9.50;;;5.20;;
62419;SDS011;48460;51.616;5.426;2022-08-21T00:17:04;11.25;;;5.00;;
62419;SDS011;48460;51.616;5.426;2022-08-21T00:19:30;8.65;;;5.45;;
62419;SDS011;48460;51.616;5.426;2022-08-21T00:21:56;12.00;;;4.90;;
62419;SDS011;48460;51.616;5.426;2022-08-21T00:24:22;13.07;;;5.13;;
62419;SDS011;48460;51.616;5.426;2022-08-21T00:26:51;10.93;;;5.10;;
62419;SDS011;48460;51.616;5.426;2022-08-21T00:29:16;7.88;;;5.20;;
62419;SDS011;48460;51.616;5.426;2022-08-21T00:31:43;12.07;;;5.32;;
62419;SDS011;48460;51.616;5.426;2022-08-21T00:34:09;11.90;;;5.10;;
62419;SDS011;48460;51.616;5.426;2022-08-21T00:36:35;8.23;;;5.00;;
62419;SDS011;48460;51.616;5.426;2022-08-21T00:39:07;9.50;;;5.13;;
62419;SDS011;48460;51.616;5.426;2022-08-21T00:41:34;10.10;;;4.85;;
62419;SDS011;48460;51.616;5.426;2022-08-21T00:44:01;12.85;;;5.30;;
62419;SDS011;48460;51.616;5.426;2022-08-21T00:46:27;11.35;;;5.13;;
62419;SDS011;48460;51.616;5.426;2022-08-21T00:48:52;8.43;;;5.03;;
62419;SDS011;48460;51.616;5.426;2022-08-21T00:51:23;11.07;;;5.43;;
62419;SDS011;48460;51.616;5.426;2022-08-21T00:53:56;9.48;;;4.82;;
62419;SDS011;48460;51.616;5.426;2022-08-21T00:58:50;8.15;;;4.63;;
62419;SDS011;48460;51.616;5.426;2022-08-21T01:01:19;11.20;;;4.60;;
62419;SDS011;48460;51.616;5.426;2022-08-21T01:03:45;7.03;;;4.85;;
62419;SDS011;48460;51.616;5.426;2022-08-21T01:06:13;7.95;;;4.82;;
62419;SDS011;48460;51.616;5.426;2022-08-21T01:08:41;7.65;;;4.57;;
62419;SDS011;48460;51.616;5.426;2022-08-21T01:11:10;10.82;;;5.32;;
62419;SDS011;48460;51.616;5.426;2022-08-21T01:13:43;9.55;;;5.10;;
62419;SDS011;48460;51.616;5.426;2022-08-21T01:16:11;8.50;;;5.30;;
62419;SDS011;48460;51.616;5.426;2022-08-21T01:18:40;10.68;;;4.90;;
62419;SDS011;48460;51.616;5.426;2022-08-21T01:21:07;9.95;;;4.90;;
62419;SDS011;48460;51.616;5.426;2022-08-21T01:23:51;10.70;;;4.90;;
62419;SDS011;48460;51.616;5.426;2022-08-21T01:26:21;8.32;;;5.10;;
62419;SDS011;48460;51.616;5.426;2022-08-21T01:28:51;13.38;;;5.20;;
62419;SDS011;48460;51.616;5.426;2022-08-21T01:31:22;8.20;;;5.30;;
62419;SDS011;48460;51.616;5.426;2022-08-21T01:33:50;7.68;;;4.95;;
62419;SDS011;48460;51.616;5.426;2022-08-21T01:36:18;7.85;;;4.75;;
62419;SDS011;48460;51.616;5.426;2022-08-21T01:38:47;11.68;;;5.03;;
62419;SDS011;48460;51.616;5.426;2022-08-21T01:41:13;10.02;;;4.65;;
62419;SDS011;48460;51.616;5.426;2022-08-21T01:43:39;9.23;;;5.13;;
62419;SDS011;48460;51.616;5.426;2022-08-21T01:46:06;11.40;;;5.40;;
62419;SDS011;48460;51.616;5.426;2022-08-21T01:48:32;11.80;;;5.50;;
62419;SDS011;48460;51.616;5.426;2022-08-21T01:50:57;9.27;;;4.85;;
62419;SDS011;48460;51.616;5.426;2022-08-21T01:53:23;12.93;;;5.22;;
62419;SDS011;48460;51.616;5.426;2022-08-21T01:55:48;9.93;;;5.10;;
62419;SDS011;48460;51.616;5.426;2022-08-21T01:58:14;10.80;;;5.43;;
62419;SDS011;48460;51.616;5.426;2022-08-21T02:00:42;9.25;;;5.60;;
62419;SDS011;48460;51.616;5.426;2022-08-21T02:03:08;13.48;;;5.30;;
62419;SDS011;48460;51.616;5.426;2022-08-21T02:05:34;13.02;;;5.82;;
62419;SDS011;48460;51.616;5.426;2022-08-21T02:08:00;8.73;;;5.00;;
62419;SDS011;48460;51.616;5.426;2022-08-21T02:10:27;12.05;;;5.18;;
62419;SDS011;48460;51.616;5.426;2022-08-21T02:12:54;10.55;;;5.03;;
62419;SDS011;48460;51.616;5.426;2022-08-21T02:15:23;10.73;;;5.28;;
62419;SDS011;48460;51.616;5.426;2022-08-21T02:17:51;7.68;;;5.45;;
62419;SDS011;48460;51.616;5.426;2022-08-21T02:20:28;8.43;;;5.32;;
62419;SDS011;48460;51.616;5.426;2022-08-21T02:22:56;11.20;;;5.80;;
62419;SDS011;48460;51.616;5.426;2022-08-21T02:25:26;10.73;;;5.10;;
62419;SDS011;48460;51.616;5.426;2022-08-21T02:27:52;9.38;;;5.18;;
62419;SDS011;48460;51.616;5.426;2022-08-21T02:30:20;7.55;;;5.13;;
62419;SDS011;48460;51.616;5.426;2022-08-21T02:32:51;13.73;;;5.43;;
62419;SDS011;48460;51.616;5.426;2022-08-21T02:35:17;9.20;;;5.30;;
62419;SDS011;48460;51.616;5.426;2022-08-21T02:40:40;10.23;;;5.80;;
62419;SDS011;48460;51.616;5.426;2022-08-21T02:43:11;8.05;;;4.90;;
62419;SDS011;48460;51.616;5.426;2022-08-21T02:45:37;7.78;;;4.43;;
62419;SDS011;48460;51.616;5.426;2022-08-21T02:48:05;8.23;;;4.65;;
62419;SDS011;48460;51.616;5.426;2022-08-21T02:50:35;10.98;;;5.10;;
62419;SDS011;48460;51.616;5.426;2022-08-21T02:53:04;11.88;;;5.45;;
62419;SDS011;48460;51.616;5.426;2022-08-21T02:55:37;8.32;;;4.88;;
62419;SDS011;48460;51.616;5.426;2022-08-21T02:58:04;11.50;;;5.40;;
62419;SDS011;48460;51.616;5.426;2022-08-21T03:00:39;10.40;;;5.60;;
62419;SDS011;48460;51.616;5.426;2022-08-21T03:03:07;12.80;;;5.70;;
62419;SDS011;48460;51.616;5.426;2022-08-21T03:05:34;8.65;;;4.70;;
62419;SDS011;48460;51.616;5.426;2022-08-21T03:08:05;6.60;;;4.55;;
62419;SDS011;48460;51.616;5.426;2022-08-21T03:10:36;9.05;;;5.28;;
62419;SDS011;48460;51.616;5.426;2022-08-21T03:13:04;14.68;;;4.85;;
62419;SDS011;48460;51.616;5.426;2022-08-21T03:15:33;9.00;;;5.30;;
62419;SDS011;48460;51.616;5.426;2022-08-21T03:18:05;8.27;;;4.88;;
62419;SDS011;48460;51.616;5.426;2022-08-21T03:20:32;10.60;;;5.40;;
62419;SDS011;48460;51.616;5.426;2022-08-21T03:22:59;10.25;;;5.50;;
62419;SDS011;48460;51.616;5.426;2022-08-21T03:25:29;13.60;;;5.55;;
62419;SDS011;48460;51.616;5.426;2022-08-21T03:27:59;10.75;;;5.30;;
62419;SDS011;48460;51.616;5.426;2022-08-21T03:30:28;7.10;;;5.28;;
62419;SDS011;48460;51.616;5.426;2022-08-21T03:32:56;11.18;;;5.63;;
62419;SDS011;48460;51.616;5.426;2022-08-21T03:35:22;10.98;;;5.97;;
62419;SDS011;48460;51.616;5.426;2022-08-21T03:37:52;12.60;;;7.18;;
62419;SDS011;48460;51.616;5.426;2022-08-21T03:40:20;14.68;;;6.75;;
62419;SDS011;48460;51.616;5.426;2022-08-21T03:42:47;10.13;;;6.95;;
62419;SDS011;48460;51.616;5.426;2022-08-21T03:45:13;10.10;;;6.90;;
62419;SDS011;48460;51.616;5.426;2022-08-21T03:50:20;11.65;;;6.90;;
62419;SDS011;48460;51.616;5.426;2022-08-21T03:52:48;14.43;;;7.77;;
62419;SDS011;48460;51.616;5.426;2022-08-21T03:55:14;12.43;;;8.85;;
62419;SDS011;48460;51.616;5.426;2022-08-21T03:57:40;16.55;;;8.73;;
62419;SDS011;48460;51.616;5.426;2022-08-21T04:00:05;16.73;;;8.57;;
62419;SDS011;48460;51.616;5.426;2022-08-21T04:02:34;16.08;;;8.85;;
62419;SDS011;48460;51.616;5.426;2022-08-21T04:05:00;14.55;;;8.95;;
62419;SDS011;48460;51.616;5.426;2022-08-21T04:07:26;13.02;;;9.15;;
62419;SDS011;48460;51.616;5.426;2022-08-21T04:09:54;17.80;;;8.30;;
62419;SDS011;48460;51.616;5.426;2022-08-21T04:12:19;14.27;;;9.15;;
62419;SDS011;48460;51.616;5.426;2022-08-21T04:14:45;14.82;;;8.05;;
62419;SDS011;48460;51.616;5.426;2022-08-21T04:17:28;13.07;;;8.18;;
62419;SDS011;48460;51.616;5.426;2022-08-21T04:19:53;10.40;;;7.22;;
62419;SDS011;48460;51.616;5.426;2022-08-21T04:22:19;12.95;;;7.30;;
62419;SDS011;48460;51.616;5.426;2022-08-21T04:24:44;14.05;;;7.95;;
62419;SDS011;48460;51.616;5.426;2022-08-21T04:27:10;10.23;;;8.02;;
62419;SDS011;48460;51.616;5.426;2022-08-21T04:29:38;14.20;;;8.18;;
62419;SDS011;48460;51.616;5.426;2022-08-21T04:32:03;11.40;;;8.43;;
62419;SDS011;48460;51.616;5.426;2022-08-21T04:34:29;16.65;;;8.75;;
62419;SDS011;48460;51.616;5.426;2022-08-21T04:36:56;15.38;;;8.65;;
62419;SDS011;48460;51.616;5.426;2022-08-21T04:39:24;12.10;;;8.50;;
62419;SDS011;48460;51.616;5.426;2022-08-21T04:41:50;12.93;;;8.20;;
62419;SDS011;48460;51.616;5.426;2022-08-21T04:44:15;13.63;;;8.82;;
62419;SDS011;48460;51.616;5.426;2022-08-21T04:46:43;15.23;;;9.10;;
62419;SDS011;48460;51.616;5.426;2022-08-21T04:49:10;14.30;;;8.52;;
62419;SDS011;48460;51.616;5.426;2022-08-21T04:51:38;15.93;;;8.75;;
62419;SDS011;48460;51.616;5.426;2022-08-21T04:56:40;15.48;;;8.82;;
62419;SDS011;48460;51.616;5.426;2022-08-21T04:59:12;19.67;;;8.95;;
62419;SDS011;48460;51.616;5.426;2022-08-21T05:01:41;15.85;;;9.02;;
62419;SDS011;48460;51.616;5.426;2022-08-21T05:04:09;16.77;;;9.15;;
62419;SDS011;48460;51.616;5.426;2022-08-21T05:06:37;15.48;;;8.95;;
62419;SDS011;48460;51.616;5.426;2022-08-21T05:09:06;17.05;;;8.68;;
62419;SDS011;48460;51.616;5.426;2022-08-21T05:11:34;14.90;;;8.85;;
62419;SDS011;48460;51.616;5.426;2022-08-21T05:14:00;15.15;;;9.48;;
62419;SDS011;48460;51.616;5.426;2022-08-21T05:16:26;24.85;;;9.43;;
62419;SDS011;48460;51.616;5.426;2022-08-21T05:18:53;12.93;;;9.18;;
62419;SDS011;48460;51.616;5.426;2022-08-21T05:21:19;19.77;;;9.90;;
62419;SDS011;48460;51.616;5.426;2022-08-21T05:23:44;19.20;;;9.88;;
62419;SDS011;48460;51.616;5.426;2022-08-21T05:26:09;17.70;;;9.30;;
62419;SDS011;48460;51.616;5.426;2022-08-21T05:28:35;19.08;;;9.73;;
62419;SDS011;48460;51.616;5.426;2022-08-21T05:31:00;18.48;;;9.85;;
62419;SDS011;48460;51.616;5.426;2022-08-21T05:33:26;14.18;;;9.10;;
62419;SDS011;48460;51.616;5.426;2022-08-21T05:35:52;16.80;;;9.25;;
62419;SDS011;48460;51.616;5.426;2022-08-21T05:38:20;18.60;;;10.05;;
62419;SDS011;48460;51.616;5.426;2022-08-21T05:40:46;17.30;;;9.98;;
62419;SDS011;48460;51.616;5.426;2022-08-21T05:43:11;24.40;;;10.50;;
62419;SDS011;48460;51.616;5.426;2022-08-21T05:45:37;19.95;;;10.35;;
62419;SDS011;48460;51.616;5.426;2022-08-21T05:48:36;18.67;;;9.77;;
62419;SDS011;48460;51.616;5.426;2022-08-21T05:50:55;20.88;;;9.05;;
62419;SDS011;48460;51.616;5.426;2022-08-21T05:53:21;15.85;;;8.63;;
62419;SDS011;48460;51.616;5.426;2022-08-21T05:55:47;26.23;;;8.52;;
62419;SDS011;48460;51.616;5.426;2022-08-21T05:58:18;17.85;;;7.88;;
62419;SDS011;48460;51.616;5.426;2022-08-21T06:00:44;15.70;;;8.32;;
62419;SDS011;48460;51.616;5.426;2022-08-21T06:03:25;16.30;;;7.50;;
62419;SDS011;48460;51.616;5.426;2022-08-21T06:05:53;19.13;;;7.88;;
62419;SDS011;48460;51.616;5.426;2022-08-21T06:08:20;16.10;;;7.50;;
62419;SDS011;48460;51.616;5.426;2022-08-21T06:10:47;16.05;;;7.68;;
62419;SDS011;48460;51.616;5.426;2022-08-21T06:13:15;18.10;;;6.90;;
62419;SDS011;48460;51.616;5.426;2022-08-21T06:15:41;21.33;;;6.72;;
62419;SDS011;48460;51.616;5.426;2022-08-21T06:18:09;13.63;;;6.32;;
62419;SDS011;48460;51.616;5.426;2022-08-21T06:20:35;12.38;;;5.90;;
62419;SDS011;48460;51.616;5.426;2022-08-21T06:23:00;15.65;;;5.80;;
62419;SDS011;48460;51.616;5.426;2022-08-21T06:25:26;17.48;;;6.50;;
62419;SDS011;48460;51.616;5.426;2022-08-21T06:28:03;17.13;;;6.30;;
62419;SDS011;48460;51.616;5.426;2022-08-21T06:30:33;16.02;;;7.43;;
62419;SDS011;48460;51.616;5.426;2022-08-21T06:32:59;15.30;;;6.43;;
62419;SDS011;48460;51.616;5.426;2022-08-21T06:35:25;16.85;;;6.35;;
62419;SDS011;48460;51.616;5.426;2022-08-21T06:37:51;12.65;;;6.30;;
62419;SDS011;48460;51.616;5.426;2022-08-21T06:40:17;18.63;;;6.60;;
62419;SDS011;48460;51.616;5.426;2022-08-21T06:42:42;17.88;;;7.00;;
62419;SDS011;48460;51.616;5.426;2022-08-21T06:45:08;16.83;;;6.28;;
62419;SDS011;48460;51.616;5.426;2022-08-21T06:47:34;20.95;;;6.63;;
62419;SDS011;48460;51.616;5.426;2022-08-21T06:49:59;16.17;;;6.70;;
62419;SDS011;48460;51.616;5.426;2022-08-21T06:52:25;19.45;;;5.95;;
62419;SDS011;48460;51.616;5.426;2022-08-21T06:54:50;18.48;;;5.93;;
62419;SDS011;48460;51.616;5.426;2022-08-21T06:57:16;16.45;;;5.72;;
62419;SDS011;48460;51.616;5.426;2022-08-21T06:59:41;20.05;;;5.97;;
62419;SDS011;48460;51.616;5.426;2022-08-21T07:02:07;17.83;;;5.88;;
62419;SDS011;48460;51.616;5.426;2022-08-21T07:04:35;13.25;;;5.95;;
62419;SDS011;48460;51.616;5.426;2022-08-21T07:07:02;18.90;;;6.15;;
62419;SDS011;48460;51.616;5.426;2022-08-21T07:09:28;17.20;;;6.00;;
62419;SDS011;48460;51.616;5.426;2022-08-21T07:11:56;16.55;;;5.93;;
62419;SDS011;48460;51.616;5.426;2022-08-21T07:14:21;18.23;;;5.90;;
62419;SDS011;48460;51.616;5.426;2022-08-21T07:16:48;21.77;;;6.50;;
62419;SDS011;48460;51.616;5.426;2022-08-21T07:19:14;15.68;;;5.63;;
62419;SDS011;48460;51.616;5.426;2022-08-21T07:21:39;19.48;;;6.32;;
62419;SDS011;48460;51.616;5.426;2022-08-21T07:24:05;20.65;;;6.65;;
62419;SDS011;48460;51.616;5.426;2022-08-21T07:26:30;15.93;;;6.03;;
62419;SDS011;48460;51.616;5.426;2022-08-21T07:28:56;21.15;;;6.50;;
62419;SDS011;48460;51.616;5.426;2022-08-21T07:31:24;16.55;;;6.10;;
62419;SDS011;48460;51.616;5.426;2022-08-21T07:33:50;18.63;;;5.93;;
62419;SDS011;48460;51.616;5.426;2022-08-21T07:36:16;15.07;;;5.72;;
62419;SDS011;48460;51.616;5.426;2022-08-21T07:38:42;18.80;;;6.15;;
62419;SDS011;48460;51.616;5.426;2022-08-21T07:44:02;19.20;;;5.93;;
62419;SDS011;48460;51.616;5.426;2022-08-21T07:46:28;15.85;;;5.93;;
62419;SDS011;48460;51.616;5.426;2022-08-21T07:48:55;19.17;;;6.43;;
62419;SDS011;48460;51.616;5.426;2022-08-21T07:51:22;20.58;;;6.10;;
62419;SDS011;48460;51.616;5.426;2022-08-21T07:56:18;20.27;;;6.57;;
62419;SDS011;48460;51.616;5.426;2022-08-21T07:58:44;20.92;;;6.28;;
62419;SDS011;48460;51.616;5.426;2022-08-21T08:01:10;18.70;;;6.57;;
62419;SDS011;48460;51.616;5.426;2022-08-21T08:03:36;17.38;;;6.18;;
62419;SDS011;48460;51.616;5.426;2022-08-21T08:06:02;20.55;;;6.78;;
62419;SDS011;48460;51.616;5.426;2022-08-21T08:08:31;14.50;;;6.15;;
62419;SDS011;48460;51.616;5.426;2022-08-21T08:10:57;21.98;;;6.53;;
62419;SDS011;48460;51.616;5.426;2022-08-21T08:13:27;20.98;;;6.07;;
62419;SDS011;48460;51.616;5.426;2022-08-21T08:15:53;18.67;;;6.50;;
62419;SDS011;48460;51.616;5.426;2022-08-21T08:18:19;18.45;;;6.20;;
62419;SDS011;48460;51.616;5.426;2022-08-21T08:20:45;21.23;;;6.18;;
62419;SDS011;48460;51.616;5.426;2022-08-21T08:23:11;17.33;;;6.07;;
62419;SDS011;48460;51.616;5.426;2022-08-21T08:25:37;21.02;;;6.22;;
62419;SDS011;48460;51.616;5.426;2022-08-21T08:28:04;20.10;;;5.80;;
62419;SDS011;48460;51.616;5.426;2022-08-21T08:30:30;21.25;;;6.25;;
62419;SDS011;48460;51.616;5.426;2022-08-21T08:32:56;19.67;;;6.03;;
62419;SDS011;48460;51.616;5.426;2022-08-21T08:35:22;21.05;;;5.93;;
62419;SDS011;48460;51.616;5.426;2022-08-21T08:37:48;21.55;;;6.15;;
62419;SDS011;48460;51.616;5.426;2022-08-21T08:40:18;20.08;;;6.05;;
62419;SDS011;48460;51.616;5.426;2022-08-21T08:42:50;20.13;;;5.40;;
62419;SDS011;48460;51.616;5.426;2022-08-21T08:45:17;14.63;;;5.00;;
62419;SDS011;48460;51.616;5.426;2022-08-21T08:47:49;16.02;;;5.13;;
62419;SDS011;48460;51.616;5.426;2022-08-21T08:56:02;19.67;;;5.28;;
62419;SDS011;48460;51.616;5.426;2022-08-21T08:58:30;21.40;;;5.10;;
62419;SDS011;48460;51.616;5.426;2022-08-21T09:00:59;14.98;;;4.75;;
62419;SDS011;48460;51.616;5.426;2022-08-21T09:03:27;17.70;;;4.78;;
62419;SDS011;48460;51.616;5.426;2022-08-21T09:06:06;15.98;;;4.32;;
62419;SDS011;48460;51.616;5.426;2022-08-21T09:08:56;17.88;;;4.78;;
62419;SDS011;48460;51.616;5.426;2022-08-21T09:26:03;13.77;;;3.63;;
62419;SDS011;48460;51.616;5.426;2022-08-21T09:28:33;13.85;;;3.92;;
62419;SDS011;48460;51.616;5.426;2022-08-21T09:31:00;10.05;;;3.80;;
62419;SDS011;48460;51.616;5.426;2022-08-21T09:33:33;14.20;;;4.00;;
62419;SDS011;48460;51.616;5.426;2022-08-21T09:35:59;15.35;;;3.58;;
62419;SDS011;48460;51.616;5.426;2022-08-21T09:38:30;14.25;;;3.83;;
62419;SDS011;48460;51.616;5.426;2022-08-21T09:41:02;10.88;;;3.63;;
62419;SDS011;48460;51.616;5.426;2022-08-21T09:43:33;11.93;;;3.33;;
62419;SDS011;48460;51.616;5.426;2022-08-21T09:46:02;12.90;;;3.25;;
62419;SDS011;48460;51.616;5.426;2022-08-21T09:48:27;12.70;;;3.60;;
62419;SDS011;48460;51.616;5.426;2022-08-21T09:51:04;10.77;;;2.78;;
62419;SDS011;48460;51.616;5.426;2022-08-21T09:53:31;11.35;;;3.13;;
62419;SDS011;48460;51.616;5.426;2022-08-21T09:56:05;14.23;;;3.63;;
62419;SDS011;48460;51.616;5.426;2022-08-21T09:59:15;8.15;;;3.20;;
62419;SDS011;48460;51.616;5.426;2022-08-21T10:01:45;11.95;;;3.53;;
62419;SDS011;48460;51.616;5.426;2022-08-21T10:04:13;14.60;;;3.58;;
62419;SDS011;48460;51.616;5.426;2022-08-21T10:06:39;11.65;;;3.22;;
62419;SDS011;48460;51.616;5.426;2022-08-21T10:09:10;14.55;;;4.05;;
62419;SDS011;48460;51.616;5.426;2022-08-21T10:11:39;7.57;;;3.47;;
62419;SDS011;48460;51.616;5.426;2022-08-21T10:14:13;13.10;;;3.45;;
62419;SDS011;48460;51.616;5.426;2022-08-21T10:19:36;12.50;;;3.05;;
62419;SDS011;48460;51.616;5.426;2022-08-21T10:25:18;12.50;;;3.35;;
62419;SDS011;48460;51.616;5.426;2022-08-21T10:28:05;9.70;;;3.35;;
62419;SDS011;48460;51.616;5.426;2022-08-21T10:30:49;9.98;;;3.70;;
62419;SDS011;48460;51.616;5.426;2022-08-21T10:33:31;9.00;;;3.28;;
62419;SDS011;48460;51.616;5.426;2022-08-21T10:36:17;13.65;;;3.67;;
62419;SDS011;48460;51.616;5.426;2022-08-21T10:38:49;10.93;;;3.47;;
62419;SDS011;48460;51.616;5.426;2022-08-21T10:44:12;13.00;;;3.63;;
62419;SDS011;48460;51.616;5.426;2022-08-21T10:47:01;11.82;;;3.38;;
62419;SDS011;48460;51.616;5.426;2022-08-21T10:49:41;9.63;;;3.05;;
62419;SDS011;48460;51.616;5.426;2022-08-21T10:55:09;13.38;;;3.97;;
62419;SDS011;48460;51.616;5.426;2022-08-21T11:01:04;6.88;;;2.60;;
62419;SDS011;48460;51.616;5.426;2022-08-21T11:03:29;7.95;;;2.70;;
62419;SDS011;48460;51.616;5.426;2022-08-21T11:06:11;7.90;;;2.75;;
62419;SDS011;48460;51.616;5.426;2022-08-21T11:08:41;8.70;;;3.10;;
62419;SDS011;48460;51.616;5.426;2022-08-21T11:11:34;9.50;;;3.00;;
62419;SDS011;48460;51.616;5.426;2022-08-21T11:14:25;14.80;;;3.88;;
62419;SDS011;48460;51.616;5.426;2022-08-21T11:16:58;10.45;;;3.10;;
62419;SDS011;48460;51.616;5.426;2022-08-21T11:24:51;8.43;;;2.97;;
62419;SDS011;48460;51.616;5.426;2022-08-21T11:27:56;8.73;;;3.35;;
62419;SDS011;48460;51.616;5.426;2022-08-21T11:30:17;10.40;;;3.20;;
62419;SDS011;48460;51.616;5.426;2022-08-21T11:32:57;11.05;;;3.10;;
62419;SDS011;48460;51.616;5.426;2022-08-21T11:35:41;9.73;;;3.08;;
62419;SDS011;48460;51.616;5.426;2022-08-21T11:38:27;12.20;;;3.28;;
62419;SDS011;48460;51.616;5.426;2022-08-21T11:47:04;13.98;;;3.42;;
62419;SDS011;48460;51.616;5.426;2022-08-21T11:52:38;10.90;;;3.15;;
62419;SDS011;48460;51.616;5.426;2022-08-21T11:55:15;12.25;;;2.90;;
62419;SDS011;48460;51.616;5.426;2022-08-21T12:00:31;11.40;;;4.28;;
62419;SDS011;48460;51.616;5.426;2022-08-21T12:03:09;14.48;;;4.07;;
62419;SDS011;48460;51.616;5.426;2022-08-21T12:05:39;13.98;;;5.10;;
62419;SDS011;48460;51.616;5.426;2022-08-21T12:16:15;13.60;;;3.08;;
62419;SDS011;48460;51.616;5.426;2022-08-21T12:26:51;12.80;;;2.90;;
62419;SDS011;48460;51.616;5.426;2022-08-21T12:29:21;10.23;;;2.70;;
62419;SDS011;48460;51.616;5.426;2022-08-21T12:32:02;11.02;;;3.00;;
62419;SDS011;48460;51.616;5.426;2022-08-21T12:37:15;8.45;;;2.63;;
62419;SDS011;48460;51.616;5.426;2022-08-21T12:39:47;10.95;;;3.30;;
62419;SDS011;48460;51.616;5.426;2022-08-21T12:42:18;8.75;;;2.70;;
62419;SDS011;48460;51.616;5.426;2022-08-21T12:44:55;8.82;;;2.67;;
62419;SDS011;48460;51.616;5.426;2022-08-21T12:47:28;8.00;;;2.55;;
62419;SDS011;48460;51.616;5.426;2022-08-21T12:50:09;11.77;;;2.60;;
62419;SDS011;48460;51.616;5.426;2022-08-21T12:52:45;8.25;;;2.60;;
62419;SDS011;48460;51.616;5.426;2022-08-21T12:55:26;8.48;;;2.70;;
62419;SDS011;48460;51.616;5.426;2022-08-21T12:57:53;11.30;;;2.97;;
62419;SDS011;48460;51.616;5.426;2022-08-21T13:00:20;11.88;;;3.10;;
62419;SDS011;48460;51.616;5.426;2022-08-21T13:02:49;8.40;;;2.58;;
62419;SDS011;48460;51.616;5.426;2022-08-21T13:05:22;8.03;;;2.80;;
62419;SDS011;48460;51.616;5.426;2022-08-21T13:08:10;8.60;;;2.80;;
62419;SDS011;48460;51.616;5.426;2022-08-21T13:10:37;8.18;;;2.65;;
62419;SDS011;48460;51.616;5.426;2022-08-21T13:13:06;10.43;;;2.90;;
62419;SDS011;48460;51.616;5.426;2022-08-21T13:15:37;10.52;;;3.17;;
62419;SDS011;48460;51.616;5.426;2022-08-21T13:18:07;8.30;;;2.72;;
62419;SDS011;48460;51.616;5.426;2022-08-21T13:20:34;7.10;;;2.53;;
62419;SDS011;48460;51.616;5.426;2022-08-21T13:23:16;10.73;;;2.88;;
62419;SDS011;48460;51.616;5.426;2022-08-21T13:25:47;9.65;;;2.90;;
62419;SDS011;48460;51.616;5.426;2022-08-21T13:28:18;10.73;;;2.90;;
62419;SDS011;48460;51.616;5.426;2022-08-21T13:30:51;13.45;;;2.80;;
62419;SDS011;48460;51.616;5.426;2022-08-21T13:33:22;13.48;;;3.08;;
62419;SDS011;48460;51.616;5.426;2022-08-21T13:38:39;11.05;;;2.85;;
62419;SDS011;48460;51.616;5.426;2022-08-21T13:41:12;12.27;;;3.08;;
62419;SDS011;48460;51.616;5.426;2022-08-21T13:46:54;7.90;;;2.83;;
62419;SDS011;48460;51.616;5.426;2022-08-21T13:49:21;10.60;;;3.10;;
62419;SDS011;48460;51.616;5.426;2022-08-21T13:52:04;12.50;;;3.03;;
62419;SDS011;48460;51.616;5.426;2022-08-21T13:54:40;11.30;;;2.90;;
62419;SDS011;48460;51.616;5.426;2022-08-21T13:57:44;9.35;;;2.88;;
62419;SDS011;48460;51.616;5.426;2022-08-21T14:03:29;10.80;;;2.90;;
62419;SDS011;48460;51.616;5.426;2022-08-21T14:06:14;13.27;;;3.00;;
62419;SDS011;48460;51.616;5.426;2022-08-21T14:08:51;10.10;;;3.10;;
62419;SDS011;48460;51.616;5.426;2022-08-21T14:11:40;9.88;;;2.92;;
62419;SDS011;48460;51.616;5.426;2022-08-21T14:14:19;10.35;;;2.63;;
62419;SDS011;48460;51.616;5.426;2022-08-21T14:17:12;12.15;;;2.97;;
62419;SDS011;48460;51.616;5.426;2022-08-21T14:20:09;12.63;;;2.88;;
62419;SDS011;48460;51.616;5.426;2022-08-21T14:23:25;11.32;;;3.05;;
62419;SDS011;48460;51.616;5.426;2022-08-21T14:29:33;11.50;;;3.25;;
62419;SDS011;48460;51.616;5.426;2022-08-21T14:32:18;10.32;;;3.28;;
62419;SDS011;48460;51.616;5.426;2022-08-21T14:35:21;9.55;;;3.22;;
62419;SDS011;48460;51.616;5.426;2022-08-21T14:38:17;8.98;;;3.03;;
62419;SDS011;48460;51.616;5.426;2022-08-21T14:51:41;12.00;;;2.88;;
62419;SDS011;48460;51.616;5.426;2022-08-21T15:00:54;9.55;;;3.00;;
62419;SDS011;48460;51.616;5.426;2022-08-21T15:03:43;13.02;;;2.90;;
62419;SDS011;48460;51.616;5.426;2022-08-21T15:10:10;8.65;;;2.83;;
62419;SDS011;48460;51.616;5.426;2022-08-21T15:12:39;10.30;;;2.85;;
62419;SDS011;48460;51.616;5.426;2022-08-21T15:15:08;8.90;;;2.75;;
62419;SDS011;48460;51.616;5.426;2022-08-21T15:17:36;9.55;;;2.75;;
62419;SDS011;48460;51.616;5.426;2022-08-21T15:20:04;9.20;;;2.83;;
62419;SDS011;48460;51.616;5.426;2022-08-21T15:22:31;10.07;;;3.17;;
62419;SDS011;48460;51.616;5.426;2022-08-21T15:25:12;11.63;;;3.08;;
62419;SDS011;48460;51.616;5.426;2022-08-21T15:27:44;9.35;;;2.80;;
62419;SDS011;48460;51.616;5.426;2022-08-21T15:30:15;12.15;;;2.97;;
62419;SDS011;48460;51.616;5.426;2022-08-21T15:32:40;8.00;;;2.72;;
62419;SDS011;48460;51.616;5.426;2022-08-21T15:35:06;11.75;;;2.63;;
62419;SDS011;48460;51.616;5.426;2022-08-21T15:37:33;9.15;;;2.97;;
62419;SDS011;48460;51.616;5.426;2022-08-21T15:40:01;10.60;;;2.83;;
62419;SDS011;48460;51.616;5.426;2022-08-21T15:42:33;9.05;;;3.10;;
62419;SDS011;48460;51.616;5.426;2022-08-21T15:44:59;8.40;;;2.97;;
62419;SDS011;48460;51.616;5.426;2022-08-21T15:47:29;9.27;;;2.88;;
62419;SDS011;48460;51.616;5.426;2022-08-21T15:49:59;11.35;;;3.17;;
62419;SDS011;48460;51.616;5.426;2022-08-21T15:52:25;11.88;;;3.30;;
62419;SDS011;48460;51.616;5.426;2022-08-21T15:54:53;10.05;;;2.70;;
62419;SDS011;48460;51.616;5.426;2022-08-21T15:57:23;11.77;;;2.85;;
62419;SDS011;48460;51.616;5.426;2022-08-21T15:59:53;12.95;;;2.90;;
62419;SDS011;48460;51.616;5.426;2022-08-21T16:02:24;8.13;;;3.05;;
62419;SDS011;48460;51.616;5.426;2022-08-21T16:04:54;11.55;;;2.90;;
62419;SDS011;48460;51.616;5.426;2022-08-21T16:07:19;9.80;;;2.90;;
62419;SDS011;48460;51.616;5.426;2022-08-21T16:09:45;11.60;;;2.85;;
62419;SDS011;48460;51.616;5.426;2022-08-21T16:12:15;9.18;;;2.90;;
62419;SDS011;48460;51.616;5.426;2022-08-21T16:14:46;9.90;;;3.03;;
62419;SDS011;48460;51.616;5.426;2022-08-21T16:17:14;11.65;;;2.95;;
62419;SDS011;48460;51.616;5.426;2022-08-21T16:19:40;9.18;;;2.97;;
62419;SDS011;48460;51.616;5.426;2022-08-21T16:25:08;15.07;;;3.43;;
62419;SDS011;48460;51.616;5.426;2022-08-21T16:27:56;9.55;;;2.80;;
62419;SDS011;48460;51.616;5.426;2022-08-21T16:30:25;11.32;;;3.20;;
62419;SDS011;48460;51.616;5.426;2022-08-21T16:32:56;9.52;;;2.85;;
62419;SDS011;48460;51.616;5.426;2022-08-21T16:35:24;8.25;;;2.70;;
62419;SDS011;48460;51.616;5.426;2022-08-21T16:37:50;8.43;;;3.10;;
62419;SDS011;48460;51.616;5.426;2022-08-21T16:40:16;10.60;;;3.10;;
62419;SDS011;48460;51.616;5.426;2022-08-21T16:42:42;8.90;;;2.90;;
62419;SDS011;48460;51.616;5.426;2022-08-21T16:45:13;8.57;;;2.95;;
62419;SDS011;48460;51.616;5.426;2022-08-21T16:47:43;10.77;;;3.30;;
62419;SDS011;48460;51.616;5.426;2022-08-21T16:50:14;13.68;;;3.40;;
62419;SDS011;48460;51.616;5.426;2022-08-21T16:52:43;8.30;;;3.00;;
62419;SDS011;48460;51.616;5.426;2022-08-21T16:55:11;9.80;;;3.08;;
62419;SDS011;48460;51.616;5.426;2022-08-21T16:57:37;11.05;;;3.20;;
62419;SDS011;48460;51.616;5.426;2022-08-21T17:00:03;13.10;;;3.38;;
62419;SDS011;48460;51.616;5.426;2022-08-21T17:02:41;8.52;;;2.95;;